createdAt,value
2022-08-10T00:01:15.704Z,18.5
2022-08-10T00:11:16.875Z,18.4
2022-08-10T00:31:15.721Z,18.2
2022-08-10T00:41:15.734Z,18.2
2022-08-10T00:51:15.738Z,18.1
2022-08-10T01:02:07.740Z,18
2022-08-10T01:12:34.383Z,17.9
2022-08-10T01:21:15.799Z,17.8
2022-08-10T01:31:15.813Z,17.6
2022-08-10T01:41:15.836Z,17.5
2022-08-10T01:51:15.849Z,17.3
2022-08-10T02:01:16.651Z,17.1
2022-08-10T02:11:15.876Z,17
2022-08-10T02:21:15.894Z,16.6
2022-08-10T02:31:15.918Z,16.5
2022-08-10T02:42:18.701Z,16.5
2022-08-10T02:51:15.946Z,16.5
2022-08-10T03:01:16.046Z,16.4
2022-08-10T03:11:15.801Z,16.4
2022-08-10T03:21:16.002Z,16.2
2022-08-10T03:31:16.078Z,16.3
2022-08-10T03:41:16.703Z,16
2022-08-10T03:51:16.039Z,15.9
2022-08-10T04:01:16.151Z,15.8
2022-08-10T04:11:16.089Z,15.7
2022-08-10T04:21:16.102Z,15.5
2022-08-10T04:31:16.194Z,15.7
2022-08-10T04:41:16.124Z,16.1
2022-08-10T04:51:17.849Z,17.5
2022-08-10T05:01:16.247Z,18.6
2022-08-10T05:11:23.785Z,18.8
2022-08-10T05:21:53.010Z,18.7
2022-08-10T05:31:22.340Z,18.9
2022-08-10T05:41:16.221Z,19.7
2022-08-10T05:51:16.250Z,20.1
2022-08-10T06:01:16.287Z,20.3
2022-08-10T06:12:35.260Z,20.8
2022-08-10T06:21:16.273Z,21.5
2022-08-10T06:31:16.281Z,22.3
2022-08-10T06:41:19.995Z,23
2022-08-10T06:51:16.338Z,23.6
2022-08-10T07:01:16.371Z,23.9
2022-08-10T07:11:16.365Z,24.5
2022-08-10T07:31:56.315Z,25.8
2022-08-10T07:41:16.417Z,27
2022-08-10T07:51:16.437Z,27.5
2022-08-10T08:01:16.654Z,27.4
2022-08-10T08:11:26.392Z,28.5
2022-08-10T08:31:16.479Z,29.2
2022-08-10T08:41:16.495Z,29.6
2022-08-10T08:52:07.103Z,29.9
2022-08-10T09:11:16.548Z,30.7
2022-08-10T09:21:16.531Z,30.8
2022-08-10T09:31:22.475Z,31.8
2022-08-10T09:41:16.642Z,31.6
2022-08-10T09:51:43.628Z,31.8
2022-08-10T10:01:57.960Z,31.5
2022-08-10T10:41:16.677Z,31.7
2022-08-10T10:51:16.698Z,32
2022-08-10T11:01:16.749Z,31.9
2022-08-10T11:12:00.568Z,32.4
2022-08-10T11:21:16.728Z,31.9
2022-08-10T11:31:16.734Z,32
2022-08-10T11:42:11.655Z,32.7
2022-08-10T11:51:16.766Z,33.1
2022-08-10T12:01:16.786Z,33.6
2022-08-10T12:11:23.860Z,32.8
2022-08-10T12:21:21.817Z,32.1
2022-08-10T12:41:16.844Z,33.2
2022-08-10T12:51:16.833Z,33.6
2022-08-10T13:12:33.917Z,34.1
2022-08-10T13:21:20.354Z,34.1
2022-08-10T13:31:17.407Z,33.9
2022-08-10T13:41:16.932Z,35.6
2022-08-10T13:51:16.946Z,34
2022-08-10T14:11:16.997Z,33.8
2022-08-10T14:21:16.994Z,34.5
2022-08-10T14:31:21.656Z,34.5
2022-08-10T14:42:01.965Z,33.4
2022-08-10T14:51:17.045Z,34.3
2022-08-10T15:01:17.123Z,33.4
2022-08-10T15:12:15.626Z,34.6
2022-08-10T15:21:17.861Z,35.1
2022-08-10T15:41:17.175Z,33
2022-08-10T15:51:17.365Z,32
2022-08-10T16:02:13.067Z,30.9
2022-08-10T16:11:17.201Z,30.4
2022-08-10T16:21:17.201Z,30
2022-08-10T16:31:17.210Z,29.7
2022-08-10T16:41:54.955Z,29.4
2022-08-10T16:51:17.464Z,29.2
2022-08-10T17:01:17.308Z,28.9
2022-08-10T17:11:17.260Z,28.7
2022-08-10T17:31:24.271Z,28.2
2022-08-10T17:51:17.322Z,27.6
2022-08-10T18:01:40.534Z,27.4
2022-08-10T18:11:17.176Z,27
2022-08-10T18:41:17.387Z,26
2022-08-10T19:01:17.561Z,25.1
2022-08-10T19:11:17.433Z,25
2022-08-10T19:31:17.284Z,24.3
2022-08-10T19:41:17.499Z,24.2
2022-08-10T19:51:17.473Z,23.8
2022-08-10T20:01:17.565Z,23.5
2022-08-10T20:11:46.480Z,23.2
2022-08-10T20:21:17.539Z,22.8
2022-08-10T20:31:18.026Z,22.7
2022-08-10T20:41:17.550Z,22.5
2022-08-10T20:51:17.573Z,22.3
2022-08-10T21:01:17.699Z,22.1
2022-08-10T21:11:17.599Z,21.9
2022-08-10T21:21:17.636Z,21.8
2022-08-10T21:31:21.810Z,21.6
2022-08-10T21:41:19.414Z,21.4
2022-08-10T21:51:24.561Z,21.2
2022-08-10T22:01:17.659Z,21
2022-08-10T22:11:17.701Z,20.9
2022-08-10T22:21:17.701Z,20.9
2022-08-10T22:31:33.024Z,20.6
2022-08-10T22:41:17.739Z,20.3
2022-08-10T22:51:17.775Z,20.2
2022-08-10T23:01:17.787Z,20
2022-08-10T23:11:17.909Z,19.8
2022-08-10T23:21:17.936Z,19.7
2022-08-10T23:31:50.414Z,19.6
2022-08-10T23:41:17.823Z,19.6
